createdAt,value
2017-10-20T00:00:05.528Z,28.8
2017-10-20T00:01:05.369Z,28.9
2017-10-20T00:02:05.654Z,28.9
2017-10-20T00:03:05.511Z,28.9
2017-10-20T00:04:05.741Z,28.9
2017-10-20T00:05:05.691Z,29
2017-10-20T00:06:05.846Z,28.9
2017-10-20T00:07:05.880Z,28.9
2017-10-20T00:08:05.686Z,28.9
2017-10-20T00:09:05.768Z,28.9
2017-10-20T00:10:06.093Z,28.9
2017-10-20T00:11:06.151Z,28.8
2017-10-20T00:12:05.992Z,28.8
2017-10-20T00:13:06.075Z,28.8
2017-10-20T00:14:06.054Z,28.8
2017-10-20T00:15:06.109Z,28.7
2017-10-20T00:16:06.351Z,28.7
2017-10-20T00:17:06.238Z,28.8
2017-10-20T00:18:06.310Z,28.7
2017-10-20T00:19:06.569Z,28.7
2017-10-20T00:20:06.611Z,28.8
2017-10-20T00:21:06.725Z,28.8
2017-10-20T00:22:06.683Z,28.7
2017-10-20T00:23:06.736Z,28.7
2017-10-20T00:24:06.766Z,28.7
2017-10-20T00:25:06.634Z,28.7
2017-10-20T00:26:06.596Z,28.7
2017-10-20T00:27:06.834Z,28.7
2017-10-20T00:28:06.711Z,28.7
2017-10-20T00:29:06.720Z,28.7
2017-10-20T00:30:06.755Z,28.7
2017-10-20T00:31:06.758Z,28.8
2017-10-20T00:32:06.852Z,28.7
2017-10-20T00:33:07.111Z,28.8
2017-10-20T00:34:06.955Z,28.8
2017-10-20T00:35:07.215Z,28.8
2017-10-20T00:36:07.253Z,28.7
2017-10-20T00:37:07.066Z,28.7
2017-10-20T00:38:07.093Z,28.7
2017-10-20T00:39:07.412Z,28.7
2017-10-20T00:40:07.513Z,28.8
2017-10-20T00:41:07.530Z,28.8
2017-10-20T00:42:07.592Z,28.7
2017-10-20T00:43:07.696Z,28.7
2017-10-20T00:44:07.622Z,28.7
2017-10-20T00:45:07.533Z,28.7
2017-10-20T00:46:07.743Z,28.7
2017-10-20T00:47:07.760Z,28.6
2017-10-20T00:48:07.802Z,28.6
2017-10-20T00:49:07.858Z,28.7
2017-10-20T00:50:07.899Z,28.7
2017-10-20T00:51:07.755Z,28.6
2017-10-20T00:52:07.774Z,28.7
2017-10-20T00:53:07.800Z,28.7
2017-10-20T00:54:07.923Z,28.7
2017-10-20T00:55:07.939Z,28.7
2017-10-20T00:56:08.199Z,28.7
2017-10-20T00:57:08.218Z,28.8
2017-10-20T00:58:08.067Z,28.8
2017-10-20T00:59:08.151Z,28.8
2017-10-20T01:00:10.465Z,28.8
2017-10-20T01:01:08.432Z,28.8
2017-10-20T01:02:08.272Z,28.8
2017-10-20T01:03:08.576Z,28.8
2017-10-20T01:04:08.306Z,28.8
2017-10-20T01:05:08.415Z,28.9
2017-10-20T01:06:08.672Z,28.9
2017-10-20T01:07:08.555Z,28.9
2017-10-20T01:08:08.711Z,28.9
2017-10-20T01:09:08.703Z,28.9
2017-10-20T01:10:08.775Z,28.9
2017-10-20T01:11:08.826Z,28.9
2017-10-20T01:12:08.840Z,28.8
2017-10-20T01:13:08.719Z,28.9
2017-10-20T01:14:08.783Z,28.9
2017-10-20T01:15:08.886Z,28.9
2017-10-20T01:16:09.137Z,28.8
2017-10-20T01:17:09.181Z,28.8
2017-10-20T01:18:08.965Z,28.8
2017-10-20T01:19:09.222Z,28.8
2017-10-20T01:20:09.071Z,28.8
2017-10-20T01:21:09.105Z,28.8
2017-10-20T01:22:09.092Z,28.7
2017-10-20T01:23:09.111Z,28.7
2017-10-20T01:24:09.118Z,28.8
2017-10-20T01:25:09.179Z,28.7
2017-10-20T01:26:09.446Z,28.7
2017-10-20T01:27:09.880Z,28.8
2017-10-20T01:28:09.442Z,28.8
2017-10-20T01:29:09.619Z,28.8
2017-10-20T01:30:09.511Z,28.8
2017-10-20T01:31:09.781Z,28.8
2017-10-20T01:32:09.808Z,28.8
2017-10-20T01:33:09.842Z,28.8
2017-10-20T01:34:09.936Z,28.8
2017-10-20T01:35:09.924Z,28.8
2017-10-20T01:36:09.870Z,28.8
2017-10-20T01:37:09.936Z,28.8
2017-10-20T01:38:10.232Z,28.8
2017-10-20T01:39:10.055Z,28.8
2017-10-20T01:40:10.317Z,28.7
2017-10-20T01:41:10.129Z,28.7
2017-10-20T01:42:10.343Z,28.7
2017-10-20T01:43:10.408Z,28.7
2017-10-20T01:44:10.296Z,28.7
2017-10-20T01:45:10.300Z,28.7
2017-10-20T01:46:10.321Z,28.7
2017-10-20T01:47:10.616Z,28.7
2017-10-20T01:48:10.713Z,28.7
2017-10-20T01:49:10.461Z,28.7
2017-10-20T01:50:10.718Z,28.7
2017-10-20T01:51:10.737Z,28.7
2017-10-20T01:52:10.600Z,28.7
2017-10-20T01:53:10.796Z,28.7
2017-10-20T01:54:10.779Z,28.7
2017-10-20T01:55:10.954Z,28.7
2017-10-20T01:56:11.012Z,28.8
2017-10-20T01:57:10.941Z,28.8
2017-10-20T01:58:11.005Z,28.8
2017-10-20T01:59:11.016Z,28.7
2017-10-20T02:00:11.056Z,28.7
2017-10-20T02:01:11.130Z,28.7
2017-10-20T02:02:11.424Z,28.7
2017-10-20T02:03:11.224Z,28.7
2017-10-20T02:04:11.569Z,28.7
2017-10-20T02:05:11.322Z,28.8
2017-10-20T02:06:11.658Z,28.8
2017-10-20T02:07:11.590Z,28.8
2017-10-20T02:08:11.675Z,28.8
2017-10-20T02:09:11.744Z,28.9
2017-10-20T02:10:11.786Z,28.9
2017-10-20T02:11:11.620Z,28.9
2017-10-20T02:12:11.899Z,28.9
2017-10-20T02:13:11.774Z,28.8
2017-10-20T02:14:11.766Z,28.8
2017-10-20T02:15:11.856Z,28.7
2017-10-20T02:16:11.852Z,28.7
2017-10-20T02:17:12.067Z,28.7
2017-10-20T02:18:12.172Z,28.7
2017-10-20T02:19:12.148Z,28.7
2017-10-20T02:20:12.262Z,28.7
2017-10-20T02:21:12.309Z,28.7
2017-10-20T02:22:12.117Z,28.6
2017-10-20T02:23:12.180Z,28.7
2017-10-20T02:24:12.415Z,28.7
2017-10-20T02:25:12.469Z,28.7
2017-10-20T02:26:12.292Z,28.6
2017-10-20T02:27:12.516Z,28.6
2017-10-20T02:28:12.589Z,28.7
2017-10-20T02:29:12.617Z,28.6
2017-10-20T02:30:12.424Z,28.6
2017-10-20T02:31:12.494Z,28.6
2017-10-20T02:32:12.755Z,28.6
2017-10-20T02:33:12.691Z,28.5
2017-10-20T02:34:12.665Z,28.5
2017-10-20T02:35:12.682Z,28.6
2017-10-20T02:36:13.011Z,28.6
2017-10-20T02:37:13.053Z,28.5
2017-10-20T02:38:12.827Z,28.5
2017-10-20T02:39:12.921Z,28.5
2017-10-20T02:40:13.179Z,28.5
2017-10-20T02:41:13.298Z,28.5
2017-10-20T02:42:13.358Z,28.5
2017-10-20T02:43:13.371Z,28.5
2017-10-20T02:44:13.491Z,28.4
2017-10-20T02:45:13.497Z,28.4
2017-10-20T02:46:13.479Z,28.4
2017-10-20T02:47:13.310Z,28.4
2017-10-20T02:48:13.671Z,28.5
2017-10-20T02:49:13.711Z,28.5
2017-10-20T02:50:13.546Z,28.5
2017-10-20T02:51:13.817Z,28.5
2017-10-20T02:52:13.799Z,28.5
2017-10-20T02:53:13.939Z,28.5
2017-10-20T02:54:13.968Z,28.5
2017-10-20T02:55:14.018Z,28.5
2017-10-20T02:56:13.967Z,28.5
2017-10-20T02:57:13.842Z,28.5
2017-10-20T02:58:14.073Z,28.5
2017-10-20T02:59:14.126Z,28.6
2017-10-20T03:00:13.980Z,28.6
2017-10-20T03:01:16.081Z,28.6
2017-10-20T03:02:14.289Z,28.6
2017-10-20T03:03:14.306Z,28.6
2017-10-20T03:04:14.162Z,28.6
2017-10-20T03:05:14.184Z,28.6
2017-10-20T03:06:14.448Z,28.6
2017-10-20T03:07:14.221Z,28.6
2017-10-20T03:08:14.266Z,28.6
2017-10-20T03:09:14.494Z,28.6
2017-10-20T03:10:14.643Z,28.6
2017-10-20T03:11:14.442Z,28.6
2017-10-20T03:12:14.694Z,28.7
2017-10-20T03:13:14.740Z,28.7
2017-10-20T03:14:14.808Z,28.6
2017-10-20T03:15:14.878Z,28.6
2017-10-20T03:16:14.693Z,28.6
2017-10-20T03:17:14.908Z,28.6
2017-10-20T03:18:14.918Z,28.5
2017-10-20T03:19:14.742Z,28.5
2017-10-20T03:20:14.892Z,28.5
2017-10-20T03:21:15.105Z,28.5
2017-10-20T03:22:15.120Z,28.5
2017-10-20T03:23:15.140Z,28.5
2017-10-20T03:24:15.023Z,28.5
2017-10-20T03:25:15.389Z,28.5
2017-10-20T03:26:15.201Z,28.5
2017-10-20T03:27:15.247Z,28.5
2017-10-20T03:28:15.340Z,28.5
2017-10-20T03:29:15.507Z,28.5
2017-10-20T03:30:15.566Z,28.5
2017-10-20T03:31:15.574Z,28.5
2017-10-20T03:32:15.592Z,28.4
2017-10-20T03:33:15.701Z,28.3
2017-10-20T03:34:15.539Z,28.3
2017-10-20T03:35:15.816Z,28.2
2017-10-20T03:36:15.601Z,28.1
2017-10-20T03:37:15.816Z,28.1
2017-10-20T03:38:15.899Z,28
2017-10-20T03:39:16.033Z,28
2017-10-20T03:40:16.082Z,27.9
2017-10-20T03:41:15.959Z,27.9
2017-10-20T03:42:16.231Z,27.9
2017-10-20T03:43:16.335Z,27.9
2017-10-20T03:44:16.378Z,27.8
2017-10-20T03:45:16.425Z,27.8
2017-10-20T03:46:16.434Z,27.8
2017-10-20T03:47:16.327Z,27.8
2017-10-20T03:48:16.463Z,27.7
2017-10-20T03:49:16.467Z,27.7
2017-10-20T03:50:16.667Z,27.7
2017-10-20T03:51:16.506Z,27.6
2017-10-20T03:52:16.796Z,27.6
2017-10-20T03:53:16.573Z,27.6
2017-10-20T03:54:16.582Z,27.6
2017-10-20T03:55:16.938Z,27.6
2017-10-20T03:56:16.796Z,27.6
2017-10-20T03:57:17.047Z,27.6
2017-10-20T03:58:16.865Z,27.6
2017-10-20T03:59:16.874Z,27.6
2017-10-20T04:00:16.969Z,27.7
2017-10-20T04:01:16.964Z,27.7
2017-10-20T04:02:16.964Z,27.7
2017-10-20T04:03:17.202Z,27.8
2017-10-20T04:04:17.140Z,27.8
2017-10-20T04:05:17.150Z,27.8
2017-10-20T04:06:17.228Z,27.8
2017-10-20T04:07:17.489Z,27.8
2017-10-20T04:08:17.607Z,27.8
2017-10-20T04:09:17.650Z,27.8
2017-10-20T04:10:17.723Z,27.8
2017-10-20T04:11:17.698Z,27.8
2017-10-20T04:12:17.737Z,27.7
2017-10-20T04:13:17.801Z,27.6
2017-10-20T04:14:17.834Z,27.6
2017-10-20T04:15:17.876Z,27.6
2017-10-20T04:16:17.954Z,27.6
2017-10-20T04:17:17.904Z,27.6
2017-10-20T04:18:17.836Z,27.6
2017-10-20T04:19:18.095Z,27.6
2017-10-20T04:20:18.140Z,27.6
2017-10-20T04:21:17.986Z,27.6
2017-10-20T04:22:18.046Z,27.6
2017-10-20T04:23:18.116Z,27.6
2017-10-20T04:24:18.222Z,27.6
2017-10-20T04:25:18.474Z,27.6
2017-10-20T04:26:18.537Z,27.6
2017-10-20T04:27:18.389Z,27.6
2017-10-20T04:28:18.597Z,27.6
2017-10-20T04:29:18.684Z,27.6
2017-10-20T04:30:18.677Z,27.7
2017-10-20T04:31:18.542Z,27.6
2017-10-20T04:32:18.606Z,27.6
2017-10-20T04:33:18.879Z,27.7
2017-10-20T04:34:18.671Z,27.7
2017-10-20T04:35:18.700Z,27.7
2017-10-20T04:36:18.794Z,27.7
2017-10-20T04:37:19.017Z,27.8
2017-10-20T04:38:18.917Z,27.7
2017-10-20T04:39:19.121Z,27.8
2017-10-20T04:40:18.893Z,27.7
2017-10-20T04:41:19.147Z,27.7
2017-10-20T04:42:19.156Z,27.6
2017-10-20T04:43:19.227Z,27.6
2017-10-20T04:44:19.101Z,27.5
2017-10-20T04:45:19.102Z,27.5
2017-10-20T04:46:19.114Z,27.5
2017-10-20T04:47:19.438Z,27.5
2017-10-20T04:48:19.521Z,27.5
2017-10-20T04:49:19.552Z,27.5
2017-10-20T04:50:19.625Z,27.5
2017-10-20T04:51:19.544Z,27.5
2017-10-20T04:52:19.768Z,27.5
2017-10-20T04:53:19.630Z,27.5
2017-10-20T04:54:19.653Z,27.5
2017-10-20T04:55:19.672Z,27.6
2017-10-20T04:56:19.952Z,27.6
2017-10-20T04:57:19.761Z,27.6
2017-10-20T04:58:20.046Z,27.7
2017-10-20T04:59:20.093Z,27.8
2017-10-20T05:00:19.889Z,27.8
2017-10-20T05:01:20.130Z,27.7
2017-10-20T05:02:20.158Z,27.7
2017-10-20T05:03:20.189Z,27.6
2017-10-20T05:04:20.014Z,27.6
2017-10-20T05:05:20.079Z,27.5
2017-10-20T05:06:20.325Z,27.5
2017-10-20T05:07:20.069Z,27.5
2017-10-20T05:08:20.344Z,27.5
2017-10-20T05:09:20.117Z,27.6
2017-10-20T05:10:20.317Z,27.6
2017-10-20T05:11:20.298Z,27.6
2017-10-20T05:12:20.611Z,27.5
2017-10-20T05:13:20.662Z,27.5
2017-10-20T05:14:20.538Z,27.4
2017-10-20T05:15:20.594Z,27.4
2017-10-20T05:16:20.874Z,27.4
2017-10-20T05:17:20.725Z,27.4
2017-10-20T05:18:21.050Z,27.4
2017-10-20T05:19:21.099Z,27.4
2017-10-20T05:20:21.080Z,27.4
2017-10-20T05:21:21.002Z,27.3
2017-10-20T05:22:21.197Z,27.3
2017-10-20T05:23:21.197Z,27.2
2017-10-20T05:24:21.271Z,27.2
2017-10-20T05:25:21.457Z,27.1
2017-10-20T05:26:21.295Z,27.1
2017-10-20T05:27:21.579Z,27.1
2017-10-20T05:28:21.396Z,27.1
2017-10-20T05:29:21.709Z,27.1
2017-10-20T05:30:21.747Z,27.1
2017-10-20T05:31:21.649Z,27.1
2017-10-20T05:32:21.900Z,27
2017-10-20T05:33:21.749Z,27
2017-10-20T05:34:21.930Z,27
2017-10-20T05:35:22.422Z,27
2017-10-20T05:36:22.092Z,27
2017-10-20T05:37:22.460Z,27
2017-10-20T05:38:23.085Z,27
2017-10-20T05:39:22.583Z,26.9
2017-10-20T05:40:22.465Z,26.8
2017-10-20T05:41:22.613Z,26.8
2017-10-20T05:42:22.344Z,26.8
2017-10-20T05:43:22.850Z,26.8
2017-10-20T05:44:22.798Z,26.8
2017-10-20T05:45:22.190Z,26.8
2017-10-20T05:46:23.535Z,26.8
2017-10-20T05:47:23.262Z,26.9
2017-10-20T05:48:23.536Z,26.9
2017-10-20T05:49:22.607Z,26.9
2017-10-20T05:50:22.649Z,26.8
2017-10-20T05:51:22.478Z,26.8
2017-10-20T05:52:22.539Z,26.8
2017-10-20T05:53:22.542Z,26.8
2017-10-20T05:54:22.606Z,26.8
2017-10-20T05:55:22.703Z,26.8
2017-10-20T05:56:22.709Z,26.8
2017-10-20T05:57:23.031Z,26.9
2017-10-20T05:58:22.911Z,26.9
2017-10-20T05:59:23.123Z,26.9
2017-10-20T06:00:24.033Z,26.9
2017-10-20T06:01:24.438Z,26.9
2017-10-20T06:02:22.997Z,26.9
2017-10-20T06:03:23.116Z,26.8
2017-10-20T06:04:23.361Z,26.8
2017-10-20T06:05:23.199Z,26.8
2017-10-20T06:06:23.324Z,26.7
2017-10-20T06:07:23.726Z,26.6
2017-10-20T06:08:23.550Z,26.5
2017-10-20T06:09:23.452Z,26.5
2017-10-20T06:10:23.671Z,26.5
2017-10-20T06:11:23.508Z,26.4
2017-10-20T06:12:23.502Z,26.4
2017-10-20T06:13:24.229Z,26.4
2017-10-20T06:14:23.745Z,26.4
2017-10-20T06:15:23.835Z,26.5
2017-10-20T06:16:23.642Z,26.4
2017-10-20T06:17:23.706Z,26.5
2017-10-20T06:18:23.712Z,26.5
2017-10-20T06:19:24.284Z,26.5
2017-10-20T06:20:23.843Z,26.5
2017-10-20T06:21:24.134Z,26.5
2017-10-20T06:22:24.265Z,26.5
2017-10-20T06:23:24.290Z,26.5
2017-10-20T06:24:24.069Z,26.6
2017-10-20T06:25:24.445Z,26.7
2017-10-20T06:26:24.248Z,26.6
2017-10-20T06:27:24.557Z,26.6
2017-10-20T06:28:24.586Z,26.6
2017-10-20T06:29:25.113Z,26.6
2017-10-20T06:30:24.375Z,26.6
2017-10-20T06:31:24.948Z,26.6
2017-10-20T06:32:24.834Z,26.7
2017-10-20T06:33:24.613Z,26.7
2017-10-20T06:34:24.800Z,26.7
2017-10-20T06:35:24.668Z,26.8
2017-10-20T06:36:24.671Z,26.8
2017-10-20T06:37:25.226Z,26.8
2017-10-20T06:38:25.410Z,26.8
2017-10-20T06:39:25.095Z,26.9
2017-10-20T06:40:25.085Z,26.9
2017-10-20T06:41:25.041Z,26.8
2017-10-20T06:42:25.042Z,26.8
2017-10-20T06:43:25.546Z,26.7
2017-10-20T06:44:25.310Z,26.7
2017-10-20T06:45:25.246Z,26.7
2017-10-20T06:46:25.535Z,26.7
2017-10-20T06:47:25.304Z,26.7
2017-10-20T06:48:25.341Z,26.7
2017-10-20T06:49:25.872Z,26.8
2017-10-20T06:50:25.603Z,26.8
2017-10-20T06:51:25.526Z,26.9
2017-10-20T06:52:25.680Z,26.9
2017-10-20T06:53:25.912Z,26.9
2017-10-20T06:54:25.789Z,26.8
2017-10-20T06:55:27.289Z,26.9
2017-10-20T06:56:27.047Z,26.9
2017-10-20T06:57:27.368Z,26.9
2017-10-20T06:58:29.251Z,26.8
2017-10-20T06:59:27.856Z,26.8
2017-10-20T07:00:29.780Z,26.8
2017-10-20T07:01:27.516Z,26.8
2017-10-20T07:02:26.253Z,26.9
2017-10-20T07:03:26.329Z,26.8
2017-10-20T07:04:26.339Z,26.8
2017-10-20T07:05:26.488Z,26.8
2017-10-20T07:06:26.468Z,26.8
2017-10-20T07:07:26.835Z,26.9
2017-10-20T07:08:26.435Z,26.9
2017-10-20T07:09:26.923Z,26.9
2017-10-20T07:10:26.990Z,26.9
2017-10-20T07:11:26.850Z,26.9
2017-10-20T07:12:26.913Z,27
2017-10-20T07:13:27.157Z,27
2017-10-20T07:14:26.749Z,27
2017-10-20T07:15:26.936Z,27
2017-10-20T07:16:26.940Z,27
2017-10-20T07:17:26.850Z,27.1
2017-10-20T07:18:26.821Z,27
2017-10-20T07:19:27.132Z,27.2
2017-10-20T07:20:27.018Z,27.2
2017-10-20T07:21:26.971Z,27.3
2017-10-20T07:22:27.193Z,27.4
2017-10-20T07:23:27.284Z,27.4
2017-10-20T07:24:27.102Z,27.5
2017-10-20T07:25:27.578Z,27.5
2017-10-20T07:26:27.185Z,27.6
2017-10-20T07:27:27.348Z,27.6
2017-10-20T07:28:27.271Z,27.5
2017-10-20T07:29:27.492Z,27.4
2017-10-20T07:30:27.645Z,27.3
2017-10-20T07:31:27.852Z,27.3
2017-10-20T07:32:27.703Z,27.4
2017-10-20T07:33:27.718Z,27.4
2017-10-20T07:34:27.834Z,27.4
2017-10-20T07:35:27.808Z,27.4
2017-10-20T07:36:27.774Z,27.5
2017-10-20T07:37:28.423Z,27.5
2017-10-20T07:38:27.767Z,27.5
2017-10-20T07:39:28.050Z,27.6
2017-10-20T07:40:27.840Z,27.5
2017-10-20T07:41:28.081Z,27.5
2017-10-20T07:42:28.133Z,27.5
2017-10-20T07:43:28.530Z,27.4
2017-10-20T07:44:28.304Z,27.4
2017-10-20T07:45:28.076Z,27.4
2017-10-20T07:46:28.572Z,27.5
2017-10-20T07:47:28.446Z,27.5
2017-10-20T07:48:28.645Z,27.5
2017-10-20T07:49:28.749Z,27.4
2017-10-20T07:50:28.423Z,27.5
2017-10-20T07:51:28.715Z,27.5
2017-10-20T07:52:28.579Z,27.5
2017-10-20T07:53:28.745Z,27.5
2017-10-20T07:54:28.784Z,27.6
2017-10-20T07:55:28.918Z,27.6
2017-10-20T07:56:28.801Z,27.6
2017-10-20T07:57:28.943Z,27.7
2017-10-20T07:58:28.850Z,27.7
2017-10-20T07:59:28.912Z,27.8
2017-10-20T08:00:29.099Z,27.9
2017-10-20T08:01:29.466Z,28
2017-10-20T08:02:29.210Z,28.1
2017-10-20T08:03:29.204Z,28.3
2017-10-20T08:04:29.334Z,28.5
2017-10-20T08:05:29.302Z,28.6
2017-10-20T08:06:29.277Z,28.5
2017-10-20T08:07:30.308Z,28.5
2017-10-20T08:08:29.643Z,28.5
2017-10-20T08:09:29.696Z,28.5
2017-10-20T08:10:29.772Z,28.5
2017-10-20T08:11:29.761Z,28.5
2017-10-20T08:12:29.833Z,28.5
2017-10-20T08:13:29.990Z,28.6
2017-10-20T08:14:29.784Z,28.6
2017-10-20T08:15:29.845Z,28.5
2017-10-20T08:16:30.164Z,28.5
2017-10-20T08:17:30.331Z,28.5
2017-10-20T08:18:30.245Z,28.5
2017-10-20T08:19:30.668Z,28.5
2017-10-20T08:20:30.237Z,28.5
2017-10-20T08:21:29.544Z,28.5
2017-10-20T08:22:29.738Z,28.5
2017-10-20T08:23:29.549Z,28.5
2017-10-20T08:24:29.378Z,28.6
2017-10-20T08:25:30.183Z,28.6
2017-10-20T08:26:29.906Z,28.6
2017-10-20T08:27:31.203Z,28.6
2017-10-20T08:28:29.588Z,28.6
2017-10-20T08:30:02.943Z,28.6
2017-10-20T08:31:02.352Z,28.6
2017-10-20T08:32:02.887Z,28.6
2017-10-20T08:33:01.848Z,28.6
2017-10-20T08:34:03.018Z,28.6
2017-10-20T08:35:03.548Z,28.5
2017-10-20T08:36:02.833Z,28.5
2017-10-20T08:37:03.652Z,28.5
2017-10-20T08:38:03.999Z,28.4
2017-10-20T08:39:04.784Z,28.3
2017-10-20T08:40:03.311Z,28.3
2017-10-20T08:41:01.929Z,28.3
2017-10-20T08:42:01.682Z,28.3
2017-10-20T08:43:02.041Z,28.2
2017-10-20T08:44:02.108Z,28.2
2017-10-20T08:45:02.174Z,28.1
2017-10-20T08:46:02.617Z,28.1
2017-10-20T08:47:02.864Z,28.1
2017-10-20T08:48:04.049Z,28
2017-10-20T08:49:02.348Z,28
2017-10-20T08:50:02.348Z,28
2017-10-20T08:51:02.091Z,28
2017-10-20T08:52:08.961Z,28
2017-10-20T08:53:06.397Z,28
2017-10-20T08:54:04.212Z,28
2017-10-20T08:55:04.190Z,28
2017-10-20T08:56:02.680Z,28
2017-10-20T08:57:04.391Z,28
2017-10-20T08:58:04.157Z,28
2017-10-20T08:59:02.871Z,28
2017-10-20T09:00:03.564Z,28
2017-10-20T09:01:04.862Z,28
2017-10-20T09:02:03.463Z,28
2017-10-20T09:03:03.290Z,28.1
2017-10-20T09:04:05.153Z,28
2017-10-20T09:05:03.103Z,28
2017-10-20T09:06:03.129Z,28.1
2017-10-20T09:07:03.120Z,28.2
2017-10-20T09:08:03.186Z,28.2
2017-10-20T09:09:03.269Z,28.2
2017-10-20T09:10:03.980Z,28.2
2017-10-20T09:11:03.190Z,28.3
2017-10-20T09:12:03.540Z,28.4
2017-10-20T09:13:03.958Z,28.4
2017-10-20T09:14:04.304Z,28.4
2017-10-20T09:15:27.732Z,28.4
2017-10-20T09:16:11.607Z,28.4
2017-10-20T09:17:03.834Z,28.4
2017-10-20T09:18:05.042Z,28.4
2017-10-20T09:19:03.851Z,28.4
2017-10-20T09:20:05.500Z,28.3
2017-10-20T09:21:05.548Z,28.2
2017-10-20T09:22:03.897Z,28.1
2017-10-20T09:23:04.489Z,28
2017-10-20T09:24:04.450Z,28
2017-10-20T09:25:06.351Z,28
2017-10-20T09:26:06.255Z,28
2017-10-20T09:27:03.956Z,28
2017-10-20T09:28:04.669Z,28
2017-10-20T09:29:06.883Z,28
2017-10-20T09:30:05.864Z,28.1
2017-10-20T09:31:04.356Z,28.1
2017-10-20T09:32:04.690Z,28.1
2017-10-20T09:33:06.272Z,28.1
2017-10-20T09:34:06.867Z,28
2017-10-20T09:35:06.773Z,28
2017-10-20T09:36:06.025Z,28
2017-10-20T09:37:04.731Z,28
2017-10-20T09:38:09.161Z,27.9
2017-10-20T09:39:08.349Z,27.7
2017-10-20T09:40:07.754Z,27.6
2017-10-20T09:41:07.777Z,27.5
2017-10-20T09:42:04.909Z,27.4
2017-10-20T09:43:04.630Z,27.4
2017-10-20T09:44:04.655Z,27.3
2017-10-20T09:45:04.989Z,27.3
2017-10-20T09:46:06.351Z,27.4
2017-10-20T09:47:06.760Z,27.4
2017-10-20T09:48:04.949Z,27.4
2017-10-20T09:49:05.124Z,27.3
2017-10-20T09:50:05.282Z,27.2
2017-10-20T09:51:05.081Z,27.2
2017-10-20T09:52:06.734Z,27.2
2017-10-20T09:53:05.384Z,27.2
2017-10-20T09:54:07.083Z,27.2
2017-10-20T09:55:05.256Z,27.1
2017-10-20T09:56:05.799Z,27
2017-10-20T09:57:05.571Z,27
2017-10-20T09:58:08.357Z,27
2017-10-20T09:59:07.347Z,27
2017-10-20T10:00:07.327Z,26.9
2017-10-20T10:01:07.043Z,26.8
2017-10-20T10:02:05.879Z,26.8
2017-10-20T10:03:09.992Z,26.8
2017-10-20T10:04:08.865Z,26.7
2017-10-20T10:05:07.728Z,26.8
2017-10-20T10:06:07.541Z,26.9
2017-10-20T10:07:07.801Z,26.8
2017-10-20T10:08:06.710Z,26.8
2017-10-20T10:09:06.245Z,26.8
2017-10-20T10:10:06.287Z,26.8
2017-10-20T10:11:08.217Z,26.8
2017-10-20T10:12:06.148Z,26.8
2017-10-20T10:13:06.102Z,26.8
2017-10-20T10:14:08.247Z,26.9
2017-10-20T10:15:08.375Z,26.9
2017-10-20T10:16:07.952Z,27
2017-10-20T10:17:06.697Z,27.1
2017-10-20T10:18:07.180Z,27.4
2017-10-20T10:19:07.043Z,27.7
2017-10-20T10:20:09.221Z,28
2017-10-20T10:21:08.541Z,28.4
2017-10-20T10:22:08.521Z,28.7
2017-10-20T10:23:08.372Z,29
2017-10-20T10:24:08.822Z,29.3
2017-10-20T10:25:06.860Z,29.7
2017-10-20T10:26:07.094Z,30.2
2017-10-20T10:27:09.197Z,30.6
2017-10-20T10:28:07.329Z,30.7
2017-10-20T10:29:07.703Z,30.5
2017-10-20T10:30:08.872Z,30.4
2017-10-20T10:31:08.919Z,30.2
2017-10-20T10:32:07.503Z,30
2017-10-20T10:33:08.858Z,29.9
2017-10-20T10:34:09.477Z,29.7
2017-10-20T10:35:07.827Z,29.5
2017-10-20T10:36:07.799Z,29.3
2017-10-20T10:37:09.401Z,29.1
2017-10-20T10:38:09.372Z,29.1
2017-10-20T10:39:07.720Z,29
2017-10-20T10:40:09.366Z,28.9
2017-10-20T10:41:09.386Z,28.8
2017-10-20T10:42:07.853Z,28.8
2017-10-20T10:43:07.915Z,28.7
2017-10-20T10:44:09.550Z,28.6
2017-10-20T10:45:07.672Z,28.6
2017-10-20T10:46:07.862Z,28.6
2017-10-20T10:47:09.494Z,28.5
2017-10-20T10:48:08.062Z,28.5
2017-10-20T10:49:11.848Z,28.4
2017-10-20T10:50:10.283Z,28.4
2017-10-20T10:51:08.037Z,28.4
2017-10-20T10:52:07.989Z,28.5
2017-10-20T10:53:08.566Z,28.5
2017-10-20T10:54:10.003Z,28.6
2017-10-20T10:55:10.185Z,28.6
2017-10-20T10:56:08.661Z,28.6
2017-10-20T10:57:10.143Z,28.5
2017-10-20T10:58:08.653Z,28.6
2017-10-20T10:59:10.007Z,28.5
2017-10-20T11:00:08.701Z,28.5
2017-10-20T11:01:08.744Z,28.4
2017-10-20T11:02:10.516Z,28.3
2017-10-20T11:03:08.829Z,28.2
2017-10-20T11:04:10.183Z,28.2
2017-10-20T11:05:08.720Z,28.2
2017-10-20T11:06:10.658Z,28.2
2017-10-20T11:07:09.424Z,28.1
2017-10-20T11:08:11.117Z,28.1
2017-10-20T11:09:10.880Z,28.1
2017-10-20T11:10:10.858Z,28.1
2017-10-20T11:11:10.148Z,28.1
2017-10-20T11:12:11.057Z,28
2017-10-20T11:13:10.983Z,28
2017-10-20T11:14:10.682Z,28
2017-10-20T11:15:10.793Z,28
2017-10-20T11:16:09.149Z,28.1
2017-10-20T11:17:11.237Z,28.1
2017-10-20T11:18:10.621Z,28.1
2017-10-20T11:19:09.692Z,28.2
2017-10-20T11:20:11.139Z,28.1
2017-10-20T11:21:09.809Z,28.1
2017-10-20T11:22:11.413Z,28.2
2017-10-20T11:23:10.064Z,28.2
2017-10-20T11:24:11.709Z,28.3
2017-10-20T11:25:11.908Z,28.2
2017-10-20T11:26:11.837Z,28.3
2017-10-20T11:27:11.882Z,28.3
2017-10-20T11:28:12.297Z,28.3
2017-10-20T11:29:11.085Z,28.4
2017-10-20T11:30:11.720Z,28.4
2017-10-20T11:31:09.940Z,28.3
2017-10-20T11:32:11.962Z,28.3
2017-10-20T11:33:12.167Z,28.3
2017-10-20T11:34:10.608Z,28.3
2017-10-20T11:35:13.144Z,28.4
2017-10-20T11:36:11.424Z,28.5
2017-10-20T11:37:12.350Z,28.4
2017-10-20T11:38:12.602Z,28.4
2017-10-20T11:39:10.434Z,28.3
2017-10-20T11:40:10.637Z,28.2
2017-10-20T11:41:12.048Z,28.2
2017-10-20T11:42:10.630Z,28.1
2017-10-20T11:43:12.594Z,28.1
2017-10-20T11:44:10.789Z,28
2017-10-20T11:45:10.802Z,27.9
2017-10-20T11:46:10.600Z,28
2017-10-20T11:47:10.965Z,28.1
2017-10-20T11:48:13.548Z,28.1
2017-10-20T11:49:11.228Z,28.2
2017-10-20T11:50:11.061Z,28.4
2017-10-20T11:51:11.113Z,28.5
2017-10-20T11:52:10.787Z,28.6
2017-10-20T11:53:11.145Z,28.7
2017-10-20T11:54:11.255Z,28.8
2017-10-20T11:55:12.885Z,28.8
2017-10-20T11:56:12.734Z,29
2017-10-20T11:57:13.320Z,29
2017-10-20T11:58:11.461Z,29.1
2017-10-20T11:59:11.533Z,29.1
2017-10-20T12:00:12.918Z,29.2
2017-10-20T12:01:11.709Z,29.2
2017-10-20T12:02:13.547Z,29.3
2017-10-20T12:03:11.660Z,29.3
2017-10-20T12:04:14.515Z,29.4
2017-10-20T12:05:13.925Z,29.4
2017-10-20T12:06:14.219Z,29.4
2017-10-20T12:07:12.370Z,29.5
2017-10-20T12:08:12.113Z,29.5
2017-10-20T12:09:12.202Z,29.5
2017-10-20T12:10:14.650Z,29.5
2017-10-20T12:11:12.521Z,29.5
2017-10-20T12:12:13.967Z,29.5
2017-10-20T12:13:11.970Z,29.6
2017-10-20T12:14:13.879Z,29.6
2017-10-20T12:15:13.611Z,29.6
2017-10-20T12:16:14.208Z,29.6
2017-10-20T12:17:12.596Z,29.6
2017-10-20T12:18:12.591Z,29.7
2017-10-20T12:19:14.232Z,29.7
2017-10-20T12:20:12.712Z,29.7
2017-10-20T12:21:12.540Z,29.7
2017-10-20T12:22:14.126Z,29.8
2017-10-20T12:23:12.963Z,29.8
2017-10-20T12:24:13.603Z,29.8
2017-10-20T12:25:13.190Z,29.8
2017-10-20T12:26:12.682Z,29.9
2017-10-20T12:27:12.770Z,29.9
2017-10-20T12:28:15.054Z,29.9
2017-10-20T12:29:14.409Z,29.9
2017-10-20T12:30:13.113Z,29.9
2017-10-20T12:31:14.528Z,29.9
2017-10-20T12:32:13.129Z,29.9
2017-10-20T12:33:14.894Z,29.9
2017-10-20T12:34:13.023Z,29.9
2017-10-20T12:35:14.789Z,29.9
2017-10-20T12:36:13.334Z,29.9
2017-10-20T12:37:14.548Z,29.9
2017-10-20T12:38:13.470Z,29.9
2017-10-20T12:39:15.008Z,29.9
2017-10-20T12:40:13.356Z,29.9
2017-10-20T12:41:13.709Z,29.9
2017-10-20T12:42:13.115Z,29.9
2017-10-20T12:43:13.474Z,29.9
2017-10-20T12:44:13.596Z,29.9
2017-10-20T12:45:15.138Z,29.9
2017-10-20T12:46:14.454Z,29.9
2017-10-20T12:47:15.142Z,29.9
2017-10-20T12:48:14.099Z,29.9
2017-10-20T12:49:15.138Z,29.9
2017-10-20T12:50:14.167Z,29.9
2017-10-20T12:51:13.890Z,29.9
2017-10-20T12:52:13.682Z,30
2017-10-20T12:53:15.810Z,30
2017-10-20T12:54:16.851Z,29.9
2017-10-20T12:55:15.583Z,30
2017-10-20T12:56:14.198Z,30
2017-10-20T12:57:14.300Z,30
2017-10-20T12:58:16.756Z,30
2017-10-20T12:59:15.626Z,30
2017-10-20T13:00:15.735Z,30
2017-10-20T13:01:14.287Z,30
2017-10-20T13:02:15.765Z,30
2017-10-20T13:03:14.587Z,30
2017-10-20T13:04:14.553Z,30
2017-10-20T13:05:14.587Z,30
2017-10-20T13:06:16.381Z,30
2017-10-20T13:07:14.454Z,30
2017-10-20T13:08:16.938Z,29.9
2017-10-20T13:09:16.463Z,30
2017-10-20T13:10:16.134Z,30
2017-10-20T13:11:14.544Z,30
2017-10-20T13:12:16.260Z,29.9
2017-10-20T13:13:16.674Z,29.9
2017-10-20T13:14:17.334Z,29.9
2017-10-20T13:15:16.673Z,29.9
2017-10-20T13:16:16.393Z,29.9
2017-10-20T13:17:16.358Z,29.9
2017-10-20T13:18:17.190Z,29.9
2017-10-20T13:19:16.791Z,29.9
2017-10-20T13:20:16.508Z,29.9
2017-10-20T13:21:15.187Z,29.9
2017-10-20T13:22:16.862Z,30
2017-10-20T13:23:16.864Z,30
2017-10-20T13:24:15.309Z,30
2017-10-20T13:25:17.008Z,30